createdAt,value
2018-04-02T00:03:03.414Z,75.47
2018-04-02T00:07:06.710Z,79.03
2018-04-02T00:11:09.240Z,75.70
2018-04-02T00:15:11.773Z,79.67
2018-04-02T00:19:14.297Z,71.33
2018-04-02T00:23:16.849Z,73.30
2018-04-02T00:27:20.154Z,71.57
2018-04-02T00:31:23.461Z,83.40
2018-04-02T00:35:26.761Z,66.83
2018-04-02T00:39:30.070Z,70.07
2018-04-02T00:43:32.581Z,68.73
2018-04-02T00:47:35.885Z,66.50
2018-04-02T00:51:38.852Z,72.37
2018-04-02T00:55:42.161Z,64.60
2018-04-02T00:59:45.462Z,73.63
2018-04-02T01:03:48.732Z,58.73
2018-04-02T01:07:51.265Z,58.07
2018-04-02T01:11:53.834Z,64.17
2018-04-02T01:15:57.145Z,60.97
2018-04-02T01:19:59.678Z,56.93
2018-04-02T01:24:02.233Z,60.03
2018-04-02T01:28:04.757Z,56.40
2018-04-02T01:32:07.294Z,54.70
2018-04-02T01:36:09.825Z,61.20
2018-04-02T01:40:12.358Z,53.20
2018-04-02T01:44:14.897Z,58.40
2018-04-02T01:48:17.412Z,60.73
2018-04-02T01:52:20.712Z,58.30
2018-04-02T01:56:24.026Z,57.80
2018-04-02T02:00:27.321Z,57.73
2018-04-02T02:04:30.957Z,56.67
2018-04-02T02:08:33.469Z,59.20
2018-04-02T02:12:36.006Z,64.43
2018-04-02T02:16:39.304Z,61.87
2018-04-02T02:20:42.611Z,68.73
2018-04-02T02:24:45.911Z,74.10
2018-04-02T02:28:49.189Z,63.07
2018-04-02T02:32:51.722Z,61.37
2018-04-02T02:36:54.261Z,64.90
2018-04-02T02:40:56.796Z,69.17
2018-04-02T02:44:59.332Z,70.47
2018-04-02T02:49:01.860Z,68.30
2018-04-02T02:53:04.390Z,72.80
2018-04-02T02:57:06.925Z,63.00
2018-04-02T03:01:09.469Z,66.33
2018-04-02T03:05:12.014Z,68.70
2018-04-02T03:09:14.531Z,69.60
2018-04-02T03:13:17.069Z,68.47
2018-04-02T03:17:19.596Z,71.53
2018-04-02T03:21:22.124Z,73.23
2018-04-02T03:25:24.667Z,75.43
2018-04-02T03:29:27.182Z,76.57
2018-04-02T03:33:30.562Z,75.33
2018-04-02T03:37:33.092Z,83.87
2018-04-02T03:41:35.623Z,73.43
2018-04-02T03:45:38.939Z,75.27
2018-04-02T03:49:41.465Z,75.80
2018-04-02T03:53:44.006Z,74.67
2018-04-02T03:57:46.541Z,75.20
2018-04-02T04:01:49.090Z,78.33
2018-04-02T04:05:52.386Z,81.40
2018-04-02T04:09:55.696Z,78.13
2018-04-02T04:13:58.985Z,78.40
2018-04-02T04:18:01.513Z,76.60
2018-04-02T04:22:04.045Z,84.53
2018-04-02T04:26:06.578Z,80.57
2018-04-02T04:30:09.114Z,84.17
2018-04-02T04:34:11.627Z,82.43
2018-04-02T04:38:14.928Z,83.03
2018-04-02T04:42:18.225Z,80.83
2018-04-02T04:46:21.525Z,83.53
2018-04-02T04:50:24.057Z,86.83
2018-04-02T04:54:26.585Z,90.13
2018-04-02T04:58:29.116Z,89.53
2018-04-02T05:02:31.657Z,90.23
2018-04-02T05:06:34.193Z,90.20
2018-04-02T05:10:36.722Z,90.20
2018-04-02T05:14:39.634Z,85.53
2018-04-02T05:18:42.169Z,86.23
2018-04-02T05:22:44.711Z,90.10
2018-04-02T05:26:48.014Z,86.03
2018-04-02T05:30:51.313Z,89.97
2018-04-02T05:34:53.851Z,88.27
2018-04-02T05:38:56.381Z,85.80
2018-04-02T05:42:59.675Z,95.03
2018-04-02T05:47:02.217Z,94.50
2018-04-02T05:51:04.799Z,95.97
2018-04-02T05:55:07.289Z,83.50
2018-04-02T05:59:09.820Z,85.87
2018-04-02T06:03:13.113Z,89.17
2018-04-02T06:07:15.649Z,85.57
2018-04-02T06:11:18.190Z,82.67
2018-04-02T06:15:21.480Z,85.13
2018-04-02T06:19:24.013Z,75.33
2018-04-02T06:23:26.597Z,76.27
2018-04-02T06:27:29.113Z,77.33
2018-04-02T06:31:31.687Z,75.10
2018-04-02T06:35:34.169Z,74.67
2018-04-02T06:39:36.706Z,75.33
2018-04-02T06:43:39.242Z,73.33
2018-04-02T06:47:41.777Z,71.47
2018-04-02T06:51:44.310Z,72.90
2018-04-02T06:55:46.834Z,75.03
2018-04-02T06:59:50.144Z,71.70
2018-04-02T07:03:53.441Z,75.80
2018-04-02T07:07:56.746Z,71.20
2018-04-02T07:12:00.060Z,73.40
2018-04-02T07:16:03.367Z,75.60
2018-04-02T07:20:06.651Z,72.93
2018-04-02T07:24:09.971Z,70.63
2018-04-02T07:28:13.276Z,71.53
2018-04-02T07:32:15.808Z,72.43
2018-04-02T07:36:18.344Z,74.57
2018-04-02T07:40:21.628Z,71.80
2018-04-02T07:44:24.228Z,71.37
2018-04-02T07:48:26.720Z,66.17
2018-04-02T07:52:29.258Z,70.20
2018-04-02T07:56:31.797Z,69.83
2018-04-02T08:00:34.313Z,68.90
2018-04-02T08:04:36.862Z,68.87
2018-04-02T08:08:39.435Z,69.50
2018-04-02T08:12:41.948Z,66.73
2018-04-02T08:16:44.481Z,72.17
2018-04-02T08:20:47.000Z,70.27
2018-04-02T08:24:49.541Z,64.40
2018-04-02T08:28:52.080Z,61.63
2018-04-02T08:32:54.614Z,68.13
2018-04-02T08:36:57.155Z,64.67
2018-04-02T08:40:59.677Z,65.00
2018-04-02T08:45:02.214Z,62.80
2018-04-02T08:49:06.397Z,58.73
2018-04-02T08:53:10.593Z,66.23
2018-04-02T08:57:14.781Z,66.17
2018-04-02T09:01:18.953Z,70.40
2018-04-02T09:05:23.141Z,70.17
2018-04-02T09:09:27.325Z,75.80
2018-04-02T09:13:31.518Z,79.93
2018-04-02T09:17:35.708Z,71.70
2018-04-02T09:21:39.909Z,82.57
2018-04-02T09:25:44.077Z,84.20
2018-04-02T09:29:48.264Z,87.83
2018-04-02T09:33:52.468Z,90.50
2018-04-02T09:37:56.656Z,95.70
2018-04-02T09:42:00.864Z,92.47
2018-04-02T09:46:05.052Z,89.03
2018-04-02T09:50:09.236Z,90.90
2018-04-02T09:54:13.472Z,92.57
2018-04-02T09:58:17.639Z,89.40
2018-04-02T10:02:21.837Z,91.07
2018-04-02T10:06:26.009Z,87.37
2018-04-02T10:10:30.216Z,88.23
2018-04-02T10:14:34.399Z,90.33
2018-04-02T10:18:38.584Z,85.33
2018-04-02T10:22:42.823Z,79.13
2018-04-02T10:26:46.962Z,83.10
2018-04-02T10:30:51.147Z,84.27
2018-04-02T10:34:55.388Z,81.33
2018-04-02T10:38:59.545Z,75.90
2018-04-02T10:43:03.734Z,75.37
2018-04-02T10:47:07.926Z,76.03
2018-04-02T10:51:12.098Z,68.87
2018-04-02T10:55:16.288Z,66.47
2018-04-02T10:59:20.491Z,71.07
2018-04-02T11:03:24.676Z,71.07
2018-04-02T11:07:29.337Z,76.70
2018-04-02T11:11:33.497Z,75.77
2018-04-02T11:15:37.693Z,70.73
2018-04-02T11:19:41.897Z,70.87
2018-04-02T11:23:46.101Z,70.70
2018-04-02T11:27:50.297Z,66.23
2018-04-02T11:31:54.474Z,62.70
2018-04-02T11:35:58.664Z,62.13
2018-04-02T11:40:02.847Z,60.27
2018-04-02T11:44:07.052Z,60.20
2018-04-02T11:48:11.245Z,54.73
2018-04-02T11:52:15.425Z,56.57
2018-04-02T11:56:19.614Z,57.93
2018-04-02T12:00:23.801Z,55.13
2018-04-02T12:04:27.981Z,54.07
2018-04-02T12:08:32.180Z,51.73
2018-04-02T12:12:36.364Z,46.23
2018-04-02T12:16:40.533Z,49.97
2018-04-02T12:20:44.719Z,46.27
2018-04-02T12:24:48.903Z,45.13
2018-04-02T12:28:53.091Z,40.70
2018-04-02T12:32:57.277Z,45.07
2018-04-02T12:37:01.441Z,40.77
2018-04-02T12:41:05.631Z,38.03
2018-04-02T12:45:09.811Z,38.40
2018-04-02T12:49:14.019Z,38.73
2018-04-02T12:53:18.210Z,37.97
2018-04-02T12:57:22.375Z,34.20
2018-04-02T13:01:26.565Z,34.80
2018-04-02T13:05:30.752Z,36.60
2018-04-02T13:09:34.949Z,34.53
2018-04-02T13:13:39.144Z,32.00
2018-04-02T13:17:44.187Z,36.33
2018-04-02T13:21:48.357Z,29.37
2018-04-02T13:25:52.569Z,32.87
2018-04-02T13:29:56.780Z,28.10
2018-04-02T13:34:00.960Z,27.10
2018-04-02T13:38:05.150Z,29.67
2018-04-02T13:42:09.320Z,27.73
2018-04-02T13:46:13.504Z,26.67
2018-04-02T13:50:17.689Z,28.47
2018-04-02T13:54:21.872Z,28.80
2018-04-02T13:58:26.057Z,34.43
2018-04-02T14:02:30.219Z,28.50
2018-04-02T14:06:34.410Z,25.23
2018-04-02T14:10:38.600Z,26.77
2018-04-02T14:14:42.803Z,25.43
2018-04-02T14:18:46.998Z,27.37
2018-04-02T14:22:51.159Z,24.20
2018-04-02T14:26:55.348Z,24.47
2018-04-02T14:30:59.532Z,22.70
2018-04-02T14:35:03.732Z,22.80
2018-04-02T14:39:07.916Z,23.37
2018-04-02T14:43:12.101Z,23.87
2018-04-02T14:47:16.264Z,24.93
2018-04-02T14:51:20.470Z,22.10
2018-04-02T14:55:24.669Z,23.27
2018-04-02T14:59:28.868Z,22.20
2018-04-02T15:03:33.060Z,21.33
2018-04-02T15:07:37.224Z,23.60
2018-04-02T15:15:54.034Z,21.93
2018-04-02T15:19:58.216Z,22.97
2018-04-02T15:24:02.399Z,24.23
2018-04-02T15:28:06.562Z,22.97
2018-04-02T15:32:10.759Z,21.90
2018-04-02T15:36:14.947Z,20.33
2018-04-02T15:40:19.133Z,23.37
2018-04-02T15:44:23.326Z,25.77
2018-04-02T15:48:27.527Z,20.87
2018-04-02T15:52:31.735Z,21.47
2018-04-02T15:56:35.925Z,22.37
2018-04-02T16:00:40.108Z,21.90
2018-04-02T16:04:44.315Z,20.27
2018-04-02T16:08:48.500Z,19.47
2018-04-02T16:12:52.671Z,19.37
2018-04-02T16:16:56.923Z,20.27
2018-04-02T16:21:01.122Z,19.97
2018-04-02T16:25:05.307Z,19.47
2018-04-02T16:29:09.503Z,19.10
2018-04-02T16:33:13.666Z,20.03
2018-04-02T16:37:17.848Z,20.10
2018-04-02T16:41:22.049Z,19.20
2018-04-02T16:45:26.847Z,18.43
2018-04-02T16:49:31.040Z,17.87
2018-04-02T16:53:35.199Z,16.57
2018-04-02T16:57:39.384Z,20.37
2018-04-02T17:01:43.571Z,17.33
2018-04-02T17:05:47.760Z,17.60
2018-04-02T17:09:51.946Z,18.87
2018-04-02T17:13:56.107Z,17.33
2018-04-02T17:18:00.298Z,18.67
2018-04-02T17:22:04.482Z,16.03
2018-04-02T17:26:08.663Z,14.43
2018-04-02T17:30:12.852Z,17.10
2018-04-02T17:34:17.032Z,14.77
2018-04-02T17:38:21.567Z,16.93
2018-04-02T17:42:25.758Z,14.80
2018-04-02T17:46:29.963Z,16.93
2018-04-02T17:50:34.141Z,16.57
2018-04-02T17:54:38.350Z,14.47
2018-04-02T17:58:42.534Z,14.67
2018-04-02T18:02:46.762Z,13.43
2018-04-02T18:06:50.951Z,13.93
2018-04-02T18:10:55.130Z,15.63
2018-04-02T18:14:59.317Z,12.57
2018-04-02T18:19:03.500Z,13.20
2018-04-02T18:23:07.689Z,13.47
2018-04-02T18:27:11.875Z,13.10
2018-04-02T18:31:16.060Z,12.33
2018-04-02T18:35:20.248Z,11.20
2018-04-02T18:39:24.575Z,12.90
2018-04-02T18:43:28.796Z,13.90
2018-04-02T18:47:32.977Z,11.93
2018-04-02T18:51:37.156Z,18.83
2018-04-02T18:55:41.361Z,15.27
2018-04-02T18:59:45.524Z,13.10
2018-04-02T19:03:50.150Z,13.50
2018-04-02T19:07:54.587Z,14.17
2018-04-02T19:11:58.833Z,12.17
2018-04-02T19:16:03.015Z,11.97
2018-04-02T19:20:07.205Z,13.37
2018-04-02T19:24:11.362Z,13.27
2018-04-02T19:28:15.583Z,13.37
2018-04-02T19:32:19.753Z,12.20
2018-04-02T19:36:24.098Z,13.27
2018-04-02T19:40:28.729Z,14.00
2018-04-02T19:44:32.896Z,13.43
2018-04-02T19:48:37.079Z,11.67
2018-04-02T19:52:41.270Z,10.17
2018-04-02T19:56:45.939Z,10.47
2018-04-02T20:00:50.009Z,9.90
2018-04-02T20:04:54.285Z,9.50
2018-04-02T20:08:58.477Z,8.90
2018-04-02T20:13:02.661Z,10.47
2018-04-02T20:17:07.318Z,7.63
2018-04-02T20:21:11.752Z,7.73
2018-04-02T20:25:15.944Z,6.83
2018-04-02T20:29:20.212Z,7.97
2018-04-02T20:33:24.557Z,6.63
2018-04-02T20:37:28.800Z,8.33
2018-04-02T20:41:32.985Z,6.33
2018-04-02T20:45:37.253Z,8.63
2018-04-02T20:49:41.454Z,7.23
2018-04-02T20:55:07.445Z,5.63
2018-04-02T20:59:11.653Z,5.53
2018-04-02T21:03:15.828Z,5.93
2018-04-02T21:07:20.004Z,6.17
2018-04-02T21:11:24.204Z,7.25
2018-04-02T21:15:28.368Z,6.43
2018-04-02T21:19:35.674Z,6.77
2018-04-02T21:23:39.940Z,6.00
2018-04-02T21:27:44.145Z,7.63
2018-04-02T21:31:48.324Z,8.63
2018-04-02T21:35:52.476Z,7.10
2018-04-02T21:39:56.684Z,7.07
2018-04-02T21:44:00.860Z,6.10
2018-04-02T21:48:05.053Z,6.10
2018-04-02T21:52:09.245Z,6.40
2018-04-02T21:56:13.398Z,6.77
2018-04-02T22:00:17.574Z,6.30
2018-04-02T22:04:21.744Z,6.63
2018-04-02T22:08:26.026Z,6.07
2018-04-02T22:12:30.208Z,6.77
2018-04-02T22:16:34.405Z,6.73
2018-04-02T22:20:38.575Z,6.90
2018-04-02T22:24:42.758Z,6.67
2018-04-02T22:28:46.929Z,8.07
2018-04-02T22:32:49.465Z,10.83
2018-04-02T22:36:52.023Z,5.63
2018-04-02T22:40:55.305Z,5.90
2018-04-02T22:44:57.867Z,7.10
2018-04-02T22:53:07.871Z,7.43
2018-04-02T22:57:10.397Z,8.80
2018-04-02T23:01:12.909Z,6.47
2018-04-02T23:05:15.449Z,6.13
2018-04-02T23:09:18.737Z,7.70
2018-04-02T23:13:21.384Z,6.13
2018-04-02T23:17:23.913Z,6.07
2018-04-02T23:21:26.420Z,6.37
2018-04-02T23:25:28.963Z,5.67
2018-04-02T23:29:31.487Z,6.43
2018-04-02T23:33:34.789Z,5.93
2018-04-02T23:37:38.081Z,8.30
2018-04-02T23:41:41.358Z,7.67
2018-04-02T23:45:43.885Z,7.90
2018-04-02T23:49:46.423Z,7.57
2018-04-02T23:53:48.962Z,6.17
2018-04-02T23:57:51.486Z,6.00
